createdAt,value
2017-05-24T00:02:12.800Z,101798.64
2017-05-24T00:04:40.379Z,101798.55
2017-05-24T00:07:07.904Z,101798.33
2017-05-24T00:09:35.464Z,101796.73
2017-05-24T00:12:02.997Z,101805.30
2017-05-24T00:14:30.591Z,101801.39
2017-05-24T00:16:58.147Z,101797.05
2017-05-24T00:19:25.676Z,101796.73
2017-05-24T00:21:53.244Z,101792.31
2017-05-24T00:24:20.768Z,101794.08
2017-05-24T00:26:48.338Z,101791.52
2017-05-24T00:29:15.859Z,101798.44
2017-05-24T00:31:43.396Z,101803.86
2017-05-24T00:34:10.963Z,101804.56
2017-05-24T00:36:38.486Z,101800.31
2017-05-24T00:39:06.080Z,101802.92
2017-05-24T00:41:33.620Z,101803.06
2017-05-24T00:44:01.223Z,101804.98
2017-05-24T00:46:28.820Z,101810.75
2017-05-24T00:48:56.351Z,101806.98
2017-05-24T00:51:23.932Z,101799.53
2017-05-24T00:53:51.453Z,101793.00
2017-05-24T00:56:19.027Z,101794.95
2017-05-24T00:58:46.568Z,101794.56
2017-05-24T01:01:14.120Z,101792.00
2017-05-24T01:03:41.657Z,101788.91
2017-05-24T01:06:09.196Z,101793.08
2017-05-24T01:08:36.761Z,101788.16
2017-05-24T01:11:04.289Z,101788.67
2017-05-24T01:13:31.853Z,101780.36
2017-05-24T01:15:59.384Z,101784.55
2017-05-24T01:18:26.912Z,101785.63
2017-05-24T01:20:54.471Z,101792.02
2017-05-24T01:23:21.993Z,101793.34
2017-05-24T01:25:49.588Z,101783.00
2017-05-24T01:28:17.124Z,101786.66
2017-05-24T01:30:44.695Z,101782.58
2017-05-24T01:33:12.385Z,101785.14
2017-05-24T01:35:39.990Z,101783.35
2017-05-24T01:38:07.622Z,101779.85
2017-05-24T01:40:35.161Z,101773.75
2017-05-24T01:43:02.745Z,101777.00
2017-05-24T01:45:30.357Z,101771.27
2017-05-24T01:47:57.901Z,101769.52
2017-05-24T01:50:25.452Z,101771.50
2017-05-24T01:52:53.017Z,101769.88
2017-05-24T01:55:20.632Z,101773.61
2017-05-24T01:57:48.224Z,101772.03
2017-05-24T02:00:15.825Z,101774.62
2017-05-24T02:02:43.757Z,101765.98
2017-05-24T02:05:11.301Z,101773.55
2017-05-24T02:07:38.831Z,101771.81
2017-05-24T02:10:06.403Z,101790.37
2017-05-24T02:12:33.957Z,101784.26
2017-05-24T02:15:01.885Z,101779.79
2017-05-24T02:17:29.415Z,101775.63
2017-05-24T02:19:56.972Z,101778.03
2017-05-24T02:22:24.539Z,101772.20
2017-05-24T02:24:52.063Z,101781.67
2017-05-24T02:27:19.640Z,101779.54
2017-05-24T02:29:47.185Z,101775.45
2017-05-24T02:32:14.767Z,101766.13
2017-05-24T02:34:42.373Z,101767.45
2017-05-24T02:37:09.919Z,101767.86
2017-05-24T02:39:37.541Z,101781.00
2017-05-24T02:42:05.140Z,101786.30
2017-05-24T02:44:32.705Z,101780.23
2017-05-24T02:47:00.233Z,101784.28
2017-05-24T02:49:27.793Z,101779.81
2017-05-24T02:51:55.353Z,101781.55
2017-05-24T02:54:22.951Z,101781.80
2017-05-24T02:56:50.622Z,101765.02
2017-05-24T02:59:18.174Z,101765.44
2017-05-24T03:01:45.695Z,101757.73
2017-05-24T03:04:13.288Z,101768.55
2017-05-24T03:06:40.818Z,101773.45
2017-05-24T03:09:08.380Z,101781.03
2017-05-24T03:11:35.912Z,101786.95
2017-05-24T03:14:03.467Z,101789.85
2017-05-24T03:16:31.025Z,101790.72
2017-05-24T03:18:58.551Z,101781.09
2017-05-24T03:21:26.116Z,101784.22
2017-05-24T03:23:53.659Z,101785.27
2017-05-24T03:26:21.192Z,101792.41
2017-05-24T03:28:48.774Z,101805.27
2017-05-24T03:31:16.297Z,101810.52
2017-05-24T03:33:43.852Z,101804.36
2017-05-24T03:36:11.418Z,101804.83
2017-05-24T03:38:38.925Z,101812.70
2017-05-24T03:41:06.444Z,101815.50
2017-05-24T03:43:34.011Z,101819.25
2017-05-24T03:46:01.561Z,101819.97
2017-05-24T03:48:29.117Z,101828.34
2017-05-24T03:50:56.889Z,101819.97
2017-05-24T03:53:24.413Z,101818.52
2017-05-24T03:55:51.959Z,101812.32
2017-05-24T03:58:19.536Z,101808.80
2017-05-24T04:00:47.043Z,101807.00
2017-05-24T04:03:14.576Z,101807.56
2017-05-24T04:05:42.165Z,101809.73
2017-05-24T04:08:09.700Z,101812.91
2017-05-24T04:10:37.274Z,101819.20
2017-05-24T04:13:04.837Z,101812.19
2017-05-24T04:15:32.366Z,101807.38
2017-05-24T04:17:59.933Z,101814.44
2017-05-24T04:20:27.537Z,101810.14
2017-05-24T04:22:55.163Z,101813.50
2017-05-24T04:25:22.706Z,101820.36
2017-05-24T04:27:50.268Z,101821.11
2017-05-24T04:30:17.894Z,101819.47
2017-05-24T04:32:45.436Z,101822.34
2017-05-24T04:35:13.074Z,101820.80
2017-05-24T04:37:40.678Z,101826.34
2017-05-24T04:40:08.224Z,101824.18
2017-05-24T04:42:35.857Z,101823.90
2017-05-24T04:45:03.386Z,101830.61
2017-05-24T04:47:30.954Z,101828.12
2017-05-24T04:49:58.501Z,101833.95
2017-05-24T04:52:26.028Z,101834.11
2017-05-24T04:54:53.675Z,101833.70
2017-05-24T04:57:21.248Z,101832.97
2017-05-24T04:59:48.827Z,101827.84
2017-05-24T05:02:16.380Z,101827.07
2017-05-24T05:04:44.268Z,101840.77
2017-05-24T05:07:11.838Z,101834.81
2017-05-24T05:09:39.484Z,101835.23
2017-05-24T05:12:07.047Z,101834.81
2017-05-24T05:14:34.631Z,101842.52
2017-05-24T05:17:02.205Z,101847.89
2017-05-24T05:19:29.731Z,101841.26
2017-05-24T05:21:57.388Z,101842.79
2017-05-24T05:24:24.932Z,101841.03
2017-05-24T05:26:52.475Z,101841.72
2017-05-24T05:29:20.024Z,101840.39
2017-05-24T05:31:47.612Z,101847.53
2017-05-24T05:34:15.173Z,101851.05
2017-05-24T05:36:44.699Z,101859.03
2017-05-24T05:39:12.343Z,101857.01
2017-05-24T05:41:39.944Z,101853.91
2017-05-24T05:44:07.625Z,101858.34
2017-05-24T05:46:35.194Z,101857.81
2017-05-24T05:49:02.737Z,101858.76
2017-05-24T05:51:30.412Z,101864.15
2017-05-24T05:53:58.051Z,101868.22
2017-05-24T05:56:29.050Z,101863.77
2017-05-24T05:58:56.623Z,101867.55
2017-05-24T06:01:25.395Z,101876.61
2017-05-24T06:03:54.296Z,101883.09
2017-05-24T06:06:21.846Z,101881.75
2017-05-24T06:08:49.429Z,101887.83
2017-05-24T06:11:17.420Z,101875.66
2017-05-24T06:13:44.975Z,101874.32
2017-05-24T06:16:12.553Z,101872.41
2017-05-24T06:18:40.234Z,101873.50
2017-05-24T06:21:07.917Z,101872.83
2017-05-24T06:23:35.452Z,101868.91
2017-05-24T06:26:03.053Z,101881.22
2017-05-24T06:28:30.592Z,101878.38
2017-05-24T06:30:58.510Z,101883.37
2017-05-24T06:33:26.101Z,101888.50
2017-05-24T06:35:53.663Z,101877.11
2017-05-24T06:38:21.386Z,101887.33
2017-05-24T06:40:48.979Z,101886.59
2017-05-24T06:43:16.567Z,101892.93
2017-05-24T06:45:44.155Z,101888.97
2017-05-24T06:48:11.730Z,101875.70
2017-05-24T06:50:39.422Z,101880.59
2017-05-24T06:53:07.374Z,101886.26
2017-05-24T06:55:35.007Z,101892.95
2017-05-24T06:58:02.575Z,101893.59
2017-05-24T07:00:30.113Z,101891.66
2017-05-24T07:02:57.784Z,101891.64
2017-05-24T07:05:25.333Z,101893.24
2017-05-24T07:07:52.947Z,101895.16
2017-05-24T07:10:20.576Z,101900.05
2017-05-24T07:12:48.240Z,101899.86
2017-05-24T07:15:15.833Z,101899.48
2017-05-24T07:17:43.430Z,101901.83
2017-05-24T07:20:11.057Z,101896.64
2017-05-24T07:22:38.946Z,101896.06
2017-05-24T07:25:06.529Z,101909.47
2017-05-24T07:27:34.190Z,101905.61
2017-05-24T07:30:01.794Z,101903.84
2017-05-24T07:32:29.348Z,101908.20
2017-05-24T07:34:56.924Z,101900.44
2017-05-24T07:37:24.558Z,101900.83
2017-05-24T07:39:52.522Z,101901.98
2017-05-24T07:42:20.047Z,101899.08
2017-05-24T07:44:47.571Z,101900.84
2017-05-24T07:47:15.157Z,101912.72
2017-05-24T07:49:42.684Z,101911.59
2017-05-24T07:52:10.331Z,101911.84
2017-05-24T07:54:37.943Z,101919.05
2017-05-24T07:57:05.514Z,101906.74
2017-05-24T07:59:33.061Z,101907.45
2017-05-24T08:02:00.626Z,101895.46
2017-05-24T08:04:28.160Z,101905.83
2017-05-24T08:06:56.047Z,101913.71
2017-05-24T08:09:23.613Z,101910.36
2017-05-24T08:11:51.187Z,101914.41
2017-05-24T08:14:18.759Z,101913.35
2017-05-24T08:16:46.316Z,101919.27
2017-05-24T08:19:13.920Z,101921.83
2017-05-24T08:21:41.481Z,101914.13
2017-05-24T08:24:09.053Z,101913.77
2017-05-24T08:26:36.635Z,101908.45
2017-05-24T08:29:04.187Z,101901.03
2017-05-24T08:31:31.740Z,101907.34
2017-05-24T08:33:59.308Z,101903.03
2017-05-24T08:36:26.840Z,101904.16
2017-05-24T08:38:54.428Z,101895.72
2017-05-24T08:41:21.985Z,101893.23
2017-05-24T08:43:49.603Z,101893.70
2017-05-24T08:46:17.148Z,101886.64
2017-05-24T08:48:44.677Z,101891.27
2017-05-24T08:51:12.255Z,101886.59
2017-05-24T08:53:39.806Z,101893.98
2017-05-24T08:56:07.460Z,101894.14
2017-05-24T08:58:35.439Z,101906.27
2017-05-24T09:01:03.033Z,101900.38
2017-05-24T09:03:30.567Z,101896.84
2017-05-24T09:05:58.113Z,101897.97
2017-05-24T09:08:25.692Z,101897.62
2017-05-24T09:10:53.277Z,101896.42
2017-05-24T09:13:20.832Z,101900.05
2017-05-24T09:15:48.389Z,101902.02
2017-05-24T09:18:15.957Z,101894.03
2017-05-24T09:20:43.527Z,101884.87
2017-05-24T09:23:11.325Z,101877.58
2017-05-24T09:25:38.915Z,101881.57
2017-05-24T09:28:06.468Z,101882.33
2017-05-24T09:30:34.060Z,101876.81
2017-05-24T09:33:01.607Z,101868.53
2017-05-24T09:35:29.201Z,101863.80
2017-05-24T09:37:56.740Z,101867.79
2017-05-24T09:40:24.277Z,101865.08
2017-05-24T09:42:51.837Z,101863.48
2017-05-24T09:45:19.399Z,101860.46
2017-05-24T09:47:46.976Z,101863.03
2017-05-24T09:50:14.520Z,101867.02
2017-05-24T09:52:42.088Z,101861.03
2017-05-24T09:55:09.651Z,101869.05
2017-05-24T09:57:37.219Z,101868.05
2017-05-24T10:00:04.782Z,101862.69
2017-05-24T10:02:32.318Z,101863.67
2017-05-24T10:04:59.902Z,101867.65
2017-05-24T10:07:27.476Z,101855.86
2017-05-24T10:09:55.002Z,101867.55
2017-05-24T10:12:22.564Z,101865.08
2017-05-24T10:14:50.146Z,101859.30
2017-05-24T10:17:17.767Z,101859.91
2017-05-24T10:19:45.312Z,101856.66
2017-05-24T10:22:12.994Z,101850.30
2017-05-24T10:24:40.524Z,101851.92
2017-05-24T10:27:08.063Z,101849.23
2017-05-24T10:29:35.629Z,101853.89
2017-05-24T10:32:03.170Z,101843.14
2017-05-24T10:34:30.777Z,101849.36
2017-05-24T10:36:58.309Z,101847.69
2017-05-24T10:39:25.824Z,101840.02
2017-05-24T10:42:12.144Z,101838.52
2017-05-24T10:44:39.736Z,101837.08
2017-05-24T10:47:07.397Z,101836.48
2017-05-24T10:49:34.970Z,101844.67
2017-05-24T10:52:02.591Z,101838.76
2017-05-24T10:54:30.241Z,101850.08
2017-05-24T10:56:57.841Z,101839.56
2017-05-24T10:59:25.447Z,101833.77
2017-05-24T11:01:52.994Z,101837.16
2017-05-24T11:04:20.583Z,101838.20
2017-05-24T11:06:48.115Z,101834.56
2017-05-24T11:09:15.668Z,101836.46
2017-05-24T11:11:43.653Z,101828.67
2017-05-24T11:14:11.191Z,101828.92
2017-05-24T11:16:38.705Z,101829.12
2017-05-24T11:19:06.280Z,101818.07
2017-05-24T11:21:33.873Z,101819.78
2017-05-24T11:24:01.440Z,101823.84
2017-05-24T11:26:28.977Z,101827.59
2017-05-24T11:28:56.565Z,101818.03
2017-05-24T11:31:24.095Z,101828.84
2017-05-24T11:33:51.652Z,101821.23
2017-05-24T11:36:19.235Z,101814.75
2017-05-24T11:38:46.816Z,101808.78
2017-05-24T11:41:14.364Z,101804.30
2017-05-24T11:43:41.968Z,101802.27
2017-05-24T11:46:09.523Z,101793.79
2017-05-24T11:48:37.108Z,101798.36
2017-05-24T11:51:04.714Z,101793.69
2017-05-24T11:53:32.277Z,101796.50
2017-05-24T11:55:59.886Z,101798.16
2017-05-24T11:58:27.457Z,101797.52
2017-05-24T12:00:55.013Z,101799.34
2017-05-24T12:03:22.679Z,101794.22
2017-05-24T12:05:50.224Z,101792.52
2017-05-24T12:08:17.826Z,101789.08
2017-05-24T12:10:45.379Z,101796.31
2017-05-24T12:13:13.008Z,101796.99
2017-05-24T12:15:40.565Z,101795.57
2017-05-24T12:18:08.125Z,101798.37
2017-05-24T12:20:35.700Z,101795.65
2017-05-24T12:23:03.251Z,101786.25
2017-05-24T12:25:31.237Z,101790.64
2017-05-24T12:27:58.869Z,101797.02
2017-05-24T12:30:26.409Z,101797.47
2017-05-24T12:32:54.055Z,101794.98
2017-05-24T12:35:21.720Z,101789.59
2017-05-24T12:37:49.629Z,101788.51
2017-05-24T12:40:17.224Z,101787.90
2017-05-24T12:42:44.773Z,101784.38
2017-05-24T12:45:12.348Z,101790.52
2017-05-24T12:47:39.891Z,101787.28
2017-05-24T12:50:07.500Z,101788.53
2017-05-24T12:52:35.049Z,101794.20
2017-05-24T12:55:02.596Z,101789.59
2017-05-24T12:57:30.178Z,101790.07
2017-05-24T12:59:57.722Z,101789.09
2017-05-24T13:02:25.332Z,101787.73
2017-05-24T13:04:52.885Z,101787.01
2017-05-24T13:07:20.466Z,101790.17
2017-05-24T13:09:48.047Z,101789.53
2017-05-24T13:12:15.605Z,101788.01
2017-05-24T13:14:43.205Z,101778.55
2017-05-24T13:17:10.780Z,101779.58
2017-05-24T13:19:38.380Z,101778.72
2017-05-24T13:22:05.915Z,101779.31
2017-05-24T13:24:33.583Z,101776.91
2017-05-24T13:27:01.186Z,101780.80
2017-05-24T13:29:28.727Z,101773.04
2017-05-24T13:31:56.258Z,101774.78
2017-05-24T13:34:23.880Z,101772.25
2017-05-24T13:36:51.512Z,101770.74
2017-05-24T13:39:19.100Z,101775.68
2017-05-24T13:41:46.717Z,101770.22
2017-05-24T13:44:14.365Z,101771.20
2017-05-24T13:46:41.972Z,101762.05
2017-05-24T13:49:09.521Z,101770.41
2017-05-24T13:51:37.085Z,101768.91
2017-05-24T13:54:04.668Z,101771.44
2017-05-24T13:56:32.219Z,101770.63
2017-05-24T13:58:59.815Z,101771.80
2017-05-24T14:01:27.375Z,101769.38
2017-05-24T14:03:54.957Z,101775.02
2017-05-24T14:06:22.521Z,101766.28
2017-05-24T14:08:50.122Z,101764.80
2017-05-24T14:11:17.688Z,101766.71
2017-05-24T14:13:45.282Z,101764.67
2017-05-24T14:16:12.797Z,101765.87
2017-05-24T14:18:40.336Z,101769.38
2017-05-24T14:21:07.918Z,101772.89
2017-05-24T14:23:35.474Z,101766.70
2017-05-24T14:26:03.035Z,101775.11
2017-05-24T14:28:30.608Z,101774.67
2017-05-24T14:30:58.869Z,101778.39
2017-05-24T14:33:26.405Z,101774.22
2017-05-24T14:35:53.953Z,101775.72
2017-05-24T14:38:21.528Z,101774.92
2017-05-24T14:40:49.055Z,101769.61
2017-05-24T14:43:16.646Z,101759.42
2017-05-24T14:45:44.216Z,101761.24
2017-05-24T14:48:11.748Z,101758.42
2017-05-24T14:50:39.376Z,101764.30
2017-05-24T14:53:06.971Z,101762.14
2017-05-24T14:55:34.544Z,101760.36
2017-05-24T14:58:02.067Z,101755.62
2017-05-24T15:00:29.660Z,101756.41
2017-05-24T15:02:57.240Z,101756.30
2017-05-24T15:05:24.787Z,101758.47
2017-05-24T15:07:52.357Z,101754.45
2017-05-24T15:10:19.945Z,101759.31
2017-05-24T15:12:47.512Z,101760.43
2017-05-24T15:15:15.485Z,101748.84
2017-05-24T15:17:43.109Z,101752.78
2017-05-24T15:20:10.704Z,101758.10
2017-05-24T15:22:38.263Z,101751.81
2017-05-24T15:25:05.783Z,101749.17
2017-05-24T15:27:33.371Z,101747.32
2017-05-24T15:30:00.937Z,101744.11
2017-05-24T15:32:28.468Z,101737.97
2017-05-24T15:34:56.031Z,101740.16
2017-05-24T15:37:23.554Z,101737.33
2017-05-24T15:39:51.213Z,101738.37
2017-05-24T15:42:20.226Z,101737.81
2017-05-24T15:44:47.723Z,101736.19
2017-05-24T15:47:15.267Z,101736.11
2017-05-24T15:49:42.871Z,101728.83
2017-05-24T15:52:10.418Z,101725.58
2017-05-24T15:54:37.955Z,101719.84
2017-05-24T15:57:05.575Z,101722.27
2017-05-24T15:59:33.123Z,101720.45
2017-05-24T16:02:00.965Z,101719.16
2017-05-24T16:04:28.559Z,101716.50
2017-05-24T16:06:56.104Z,101715.20
2017-05-24T16:09:23.763Z,101723.95
2017-05-24T16:11:51.325Z,101714.54
2017-05-24T16:14:19.092Z,101718.61
2017-05-24T16:16:46.676Z,101718.56
2017-05-24T16:19:14.224Z,101715.05
2017-05-24T16:21:41.945Z,101697.52
2017-05-24T16:24:09.490Z,101703.83
2017-05-24T16:26:37.047Z,101702.50
2017-05-24T16:29:04.733Z,101702.34
2017-05-24T16:31:32.256Z,101696.62
2017-05-24T16:33:59.798Z,101698.21
2017-05-24T16:36:27.540Z,101700.66
2017-05-24T16:38:55.085Z,101698.89
2017-05-24T16:41:22.658Z,101696.47
2017-05-24T16:43:50.380Z,101688.25
2017-05-24T16:46:17.916Z,101691.85
2017-05-24T16:48:45.551Z,101695.59
2017-05-24T16:51:13.524Z,101694.55
2017-05-24T16:53:41.057Z,101695.43
2017-05-24T16:56:08.598Z,101694.17
2017-05-24T16:58:36.157Z,101693.27
2017-05-24T17:01:03.712Z,101689.86
2017-05-24T17:03:31.411Z,101689.41
2017-05-24T17:05:58.957Z,101698.22
2017-05-24T17:08:26.513Z,101695.48
2017-05-24T17:10:54.399Z,101696.28
2017-05-24T17:13:22.001Z,101693.88
2017-05-24T17:15:49.632Z,101696.70
2017-05-24T17:18:17.210Z,101700.72
2017-05-24T17:20:45.680Z,101690.56
2017-05-24T17:23:13.366Z,101700.34
2017-05-24T17:25:40.916Z,101699.55
2017-05-24T17:28:08.441Z,101700.11
2017-05-24T17:30:36.044Z,101700.48
2017-05-24T17:33:03.587Z,101706.27
2017-05-24T17:35:31.275Z,101699.68
2017-05-24T17:37:58.820Z,101694.44
2017-05-24T17:40:26.358Z,101700.45
2017-05-24T17:42:54.064Z,101705.71
2017-05-24T17:45:21.611Z,101711.36
2017-05-24T17:47:49.143Z,101708.92
2017-05-24T17:50:16.728Z,101713.98
2017-05-24T17:52:44.253Z,101717.28
2017-05-24T17:55:11.960Z,101710.03
2017-05-24T17:57:39.483Z,101718.55
2017-05-24T18:00:07.083Z,101722.89
2017-05-24T18:02:34.663Z,101719.67
2017-05-24T18:05:02.285Z,101721.08
2017-05-24T18:07:30.365Z,101722.78
2017-05-24T18:09:57.932Z,101719.58
2017-05-24T18:12:25.477Z,101718.62
2017-05-24T18:14:53.061Z,101724.28
2017-05-24T18:17:20.616Z,101725.91
2017-05-24T18:19:48.314Z,101721.56
2017-05-24T18:22:15.843Z,101709.08
2017-05-24T18:24:43.372Z,101716.17
2017-05-24T18:27:10.939Z,101724.94
2017-05-24T18:29:38.455Z,101726.88
2017-05-24T18:32:06.300Z,101725.75
2017-05-24T18:34:33.951Z,101728.16
2017-05-24T18:37:01.497Z,101729.92
2017-05-24T18:39:29.067Z,101724.52
2017-05-24T18:41:56.617Z,101727.47
2017-05-24T18:44:24.183Z,101732.98
2017-05-24T18:46:51.720Z,101733.84
2017-05-24T18:49:19.524Z,101729.13
2017-05-24T18:51:47.134Z,101735.02
2017-05-24T18:54:14.904Z,101734.28
2017-05-24T18:56:42.496Z,101731.40
2017-05-24T18:59:10.051Z,101732.27
2017-05-24T19:01:37.646Z,101741.09
2017-05-24T19:04:05.605Z,101737.36
2017-05-24T19:06:33.140Z,101741.41
2017-05-24T19:09:00.693Z,101744.77
2017-05-24T19:11:28.607Z,101750.66
2017-05-24T19:13:56.176Z,101751.02
2017-05-24T19:16:23.708Z,101753.54
2017-05-24T19:18:51.451Z,101755.94
2017-05-24T19:21:18.988Z,101753.00
2017-05-24T19:23:46.526Z,101755.98
2017-05-24T19:26:14.105Z,101754.47
2017-05-24T19:28:41.724Z,101765.95
2017-05-24T19:31:09.449Z,101760.02
2017-05-24T19:33:37.003Z,101765.09
2017-05-24T19:36:04.552Z,101768.67
2017-05-24T19:38:32.244Z,101763.27
2017-05-24T19:40:59.783Z,101767.56
2017-05-24T19:43:27.375Z,101767.66
2017-05-24T19:45:55.098Z,101778.56
2017-05-24T19:48:22.637Z,101780.81
2017-05-24T19:50:50.416Z,101782.37
2017-05-24T19:53:17.984Z,101781.66
2017-05-24T19:55:45.538Z,101784.20
2017-05-24T19:58:13.276Z,101784.76
2017-05-24T20:00:40.816Z,101787.33
2017-05-24T20:03:08.376Z,101794.07
2017-05-24T20:05:35.942Z,101793.75
2017-05-24T20:08:03.500Z,101805.09
2017-05-24T20:10:31.184Z,101803.90
2017-05-24T20:12:58.734Z,101805.20
2017-05-24T20:15:26.273Z,101807.48
2017-05-24T20:17:53.839Z,101818.77
2017-05-24T20:20:21.366Z,101819.95
2017-05-24T20:22:49.260Z,101821.47
2017-05-24T20:25:16.828Z,101820.42
2017-05-24T20:27:44.444Z,101825.22
2017-05-24T20:30:12.007Z,101825.16
2017-05-24T20:32:39.536Z,101826.89
2017-05-24T20:35:07.272Z,101831.05
2017-05-24T20:37:34.813Z,101827.01
2017-05-24T20:40:02.342Z,101831.84
2017-05-24T20:42:29.936Z,101827.80
2017-05-24T20:44:57.521Z,101831.62
2017-05-24T20:47:25.207Z,101835.14
2017-05-24T20:49:52.803Z,101828.59
2017-05-24T20:52:20.363Z,101828.47
2017-05-24T20:54:48.198Z,101832.58
2017-05-24T20:57:15.814Z,101838.62
2017-05-24T20:59:43.406Z,101842.28
2017-05-24T21:02:11.359Z,101841.93
2017-05-24T21:04:38.879Z,101841.27
2017-05-24T21:07:06.434Z,101849.89
2017-05-24T21:09:34.025Z,101845.68
2017-05-24T21:12:01.551Z,101851.63
2017-05-24T21:14:29.123Z,101854.75
2017-05-24T21:16:56.659Z,101850.94
2017-05-24T21:19:24.243Z,101853.80
2017-05-24T21:21:51.770Z,101856.31
2017-05-24T21:24:19.457Z,101853.45
2017-05-24T21:26:46.988Z,101852.45
2017-05-24T21:29:14.551Z,101854.43
2017-05-24T21:31:42.252Z,101854.08
2017-05-24T21:34:09.787Z,101856.53
2017-05-24T21:36:37.321Z,101853.22
2017-05-24T21:39:04.887Z,101849.00
2017-05-24T21:41:32.428Z,101850.13
2017-05-24T21:44:00.132Z,101856.62
2017-05-24T21:46:27.699Z,101854.33
2017-05-24T21:48:55.244Z,101847.36
2017-05-24T21:51:22.824Z,101848.98
2017-05-24T21:53:50.346Z,101846.20
2017-05-24T21:56:18.023Z,101844.31
2017-05-24T21:58:45.548Z,101839.63
2017-05-24T22:01:13.071Z,101845.19
2017-05-24T22:03:40.814Z,101847.06
2017-05-24T22:06:08.364Z,101844.42
2017-05-24T22:08:35.914Z,101850.66
2017-05-24T22:11:03.742Z,101850.20
2017-05-24T22:13:31.295Z,101846.94
2017-05-24T22:15:58.875Z,101851.91
2017-05-24T22:18:26.616Z,101852.75
2017-05-24T22:20:54.227Z,101857.42
2017-05-24T22:23:21.778Z,101848.00
2017-05-24T22:25:49.331Z,101855.38
2017-05-24T22:28:16.864Z,101857.22
2017-05-24T22:30:44.543Z,101860.94
2017-05-24T22:33:12.072Z,101859.53
2017-05-24T22:35:40.345Z,101859.69
2017-05-24T22:38:08.026Z,101856.56
2017-05-24T22:40:35.562Z,101862.95
2017-05-24T22:43:03.086Z,101862.43
2017-05-24T22:45:30.646Z,101863.50
2017-05-24T22:47:58.191Z,101868.95
2017-05-24T22:50:25.768Z,101870.45
2017-05-24T22:52:53.300Z,101872.53
2017-05-24T22:55:21.027Z,101876.34
2017-05-24T22:57:48.616Z,101875.99
2017-05-24T23:00:16.131Z,101878.42
2017-05-24T23:02:43.999Z,101885.36
2017-05-24T23:05:11.571Z,101878.66
2017-05-24T23:07:39.155Z,101882.42
2017-05-24T23:10:06.771Z,101879.59
2017-05-24T23:12:34.296Z,101883.41
2017-05-24T23:15:01.917Z,101886.71
2017-05-24T23:17:29.522Z,101889.86
2017-05-24T23:19:57.065Z,101875.53
2017-05-24T23:22:24.821Z,101882.17
2017-05-24T23:24:52.361Z,101882.19
2017-05-24T23:27:19.923Z,101884.25
2017-05-24T23:29:47.835Z,101883.69
2017-05-24T23:32:15.371Z,101886.02
2017-05-24T23:34:42.915Z,101888.08
2017-05-24T23:37:10.479Z,101889.95
2017-05-24T23:39:38.009Z,101891.45
2017-05-24T23:42:05.688Z,101889.16
2017-05-24T23:44:33.219Z,101893.12
2017-05-24T23:47:00.776Z,101894.20
2017-05-24T23:49:28.453Z,101887.02
2017-05-24T23:51:56.002Z,101887.70
2017-05-24T23:54:23.557Z,101883.65
2017-05-24T23:56:51.135Z,101880.42
2017-05-24T23:59:18.719Z,101878.78
